Time;durP1;ratioP1;P1;durP2;ratioP2;P2;SDS_P1;SDS_P2;PMS_P1;PMS_P2;Temp;Humidity;BMP_temperature;BMP_pressure;BME280_temperature;BME280_humidity;BME280_pressure;Samples;Min_cycle;Max_cycle;Signal;HPM_P1;HPM_P2
2022/07/10 00:01:27;;;;;;;;;;;26.40;37.20;;;;;;5077039;28;1791;-39
2022/07/10 00:03:55;;;;;;;;;;;26.30;37.30;;;;;;5076526;28;1083;-36
2022/07/10 00:06:22;;;;;;;;;;;26.40;37.20;;;;;;5077202;28;1066;-38
2022/07/10 00:08:48;;;;;;;;;;;26.40;37.00;;;;;;5076287;28;1906;-37
2022/07/10 00:11:15;;;;;;;;;;;26.40;37.10;;;;;;5076544;28;933;-36
2022/07/10 00:13:42;;;;;;;;;;;26.40;37.00;;;;;;5077021;28;953;-37
2022/07/10 00:16:09;;;;;;;;;;;26.40;37.10;;;;;;5077027;28;948;-39
2022/07/10 00:18:36;;;;;;;;;;;26.40;37.00;;;;;;5077335;28;951;-38
2022/07/10 00:21:04;;;;;;;;;;;26.40;37.00;;;;;;5076154;28;981;-39
2022/07/10 00:23:31;;;;;;;;;;;26.40;37.00;;;;;;5076566;28;1001;-39
2022/07/10 00:25:58;;;;;;;;;;;26.30;37.00;;;;;;5077560;28;948;-38
2022/07/10 00:28:24;;;;;;;;;;;26.30;37.10;;;;;;5077629;28;1969;-39
2022/07/10 00:30:51;;;;;;;;;;;26.30;37.20;;;;;;5077745;28;979;-39
2022/07/10 00:33:18;;;;;;;;;;;26.30;37.10;;;;;;5077796;28;1001;-41
2022/07/10 00:35:44;;;;;;;;;;;26.30;37.10;;;;;;5077605;28;969;-39
2022/07/10 00:38:13;;;;;;;;;;;26.30;37.10;;;;;;5077480;28;1088;-39
2022/07/10 00:40:39;;;;;;;;;;;26.40;37.10;;;;;;5077301;28;1106;-40
2022/07/10 00:43:08;;;;;;;;;;;26.40;37.10;;;;;;5077750;28;1015;-42
2022/07/10 00:45:36;;;;;;;;;;;26.40;37.10;;;;;;5079758;28;1018;-40
2022/07/10 00:48:03;;;;;;;;;;;26.40;37.10;;;;;;5081417;28;944;-40
2022/07/10 00:50:30;;;;;;;;;;;26.40;37.00;;;;;;5081598;28;1906;-37
2022/07/10 00:52:57;;;;;;;;;;;26.40;37.10;;;;;;5081604;28;1005;-39
2022/07/10 00:55:25;;;;;;;;;;;26.30;37.00;;;;;;5081616;28;1031;-39
2022/07/10 00:57:52;;;;;;;;;;;26.30;37.00;;;;;;5081264;28;1004;-39
2022/07/10 01:00:18;;;;;;;;;;;26.30;37.10;;;;;;5081971;28;912;-41
2022/07/10 01:02:45;;;;;;;;;;;26.30;37.00;;;;;;5080794;28;1108;-39
2022/07/10 01:05:12;;;;;;;;;;;26.30;37.00;;;;;;5081514;28;1021;-40
2022/07/10 01:07:39;;;;;;;;;;;26.30;37.10;;;;;;5081137;28;972;-42
2022/07/10 01:10:06;;;;;;;;;;;26.20;37.10;;;;;;5078853;28;2003;-40
2022/07/10 01:12:34;;;;;;;;;;;26.20;37.10;;;;;;5080416;28;1012;-39
2022/07/10 01:15:01;;;;;;;;;;;26.30;37.10;;;;;;5081189;28;1006;-44
2022/07/10 01:17:29;;;;;;;;;;;26.20;37.10;;;;;;5080752;28;948;-42
2022/07/10 01:19:56;;;;;;;;;;;26.10;37.10;;;;;;5080910;28;997;-44
2022/07/10 01:22:24;;;;;;;;;;;26.20;37.20;;;;;;5080664;28;1003;-41
2022/07/10 01:24:50;;;;;;;;;;;26.20;37.10;;;;;;5080588;28;1005;-39
2022/07/10 01:27:17;;;;;;;;;;;26.10;37.10;;;;;;5080523;28;989;-39
2022/07/10 01:29:45;;;;;;;;;;;26.10;37.10;;;;;;5081026;28;1963;-40
2022/07/10 01:32:11;;;;;;;;;;;26.10;37.30;;;;;;5080993;28;969;-39
2022/07/10 01:34:38;;;;;;;;;;;26.20;37.20;;;;;;5080389;28;989;-38
2022/07/10 01:37:05;;;;;;;;;;;26.20;37.10;;;;;;5080560;28;1008;-39
2022/07/10 01:39:33;;;;;;;;;;;26.20;37.10;;;;;;5080244;28;936;-40
2022/07/10 01:42:00;;;;;;;;;;;26.20;37.10;;;;;;5079784;28;1032;-40
2022/07/10 01:44:27;;;;;;;;;;;26.20;37.30;;;;;;5079965;28;994;-38
2022/07/10 01:46:54;;;;;;;;;;;26.10;37.30;;;;;;5080085;28;1006;-41
2022/07/10 01:49:20;;;;;;;;;;;26.10;37.20;;;;;;5080726;28;1902;-38
2022/07/10 01:51:47;;;;;;;;;;;26.20;37.30;;;;;;5080181;28;914;-40
2022/07/10 01:54:14;;;;;;;;;;;26.10;37.30;;;;;;5080049;28;992;-41
2022/07/10 01:56:42;;;;;;;;;;;26.10;37.30;;;;;;5080464;28;1014;-39
2022/07/10 01:59:08;;;;;;;;;;;26.10;37.40;;;;;;5080520;28;979;-38
2022/07/10 02:01:36;;;;;;;;;;;26.10;37.30;;;;;;5079812;28;1007;-39
2022/07/10 02:06:47;;;;;;;;;;;26.20;37.40;;;;;;5079525;28;610;-38
2022/07/10 02:09:14;;;;;;;;;;;26.20;37.40;;;;;;5080244;28;1913;-39
2022/07/10 02:11:42;;;;;;;;;;;26.10;37.50;;;;;;5080161;28;963;-39
2022/07/10 02:14:09;;;;;;;;;;;26.10;37.40;;;;;;5080296;28;983;-39
2022/07/10 02:16:37;;;;;;;;;;;26.10;37.40;;;;;;5079952;28;984;-38
2022/07/10 02:19:05;;;;;;;;;;;26.20;37.40;;;;;;5080266;28;974;-38
2022/07/10 02:21:31;;;;;;;;;;;26.20;37.50;;;;;;5079823;28;989;-38
2022/07/10 02:23:58;;;;;;;;;;;26.20;37.40;;;;;;5080056;28;1060;-41
2022/07/10 02:26:25;;;;;;;;;;;26.20;37.40;;;;;;5073063;28;967;-39
2022/07/10 02:28:53;;;;;;;;;;;26.20;37.40;;;;;;5080032;28;1894;-42
2022/07/10 02:31:19;;;;;;;;;;;26.10;37.40;;;;;;5077070;28;936;-40
2022/07/10 02:33:46;;;;;;;;;;;26.20;37.50;;;;;;5079518;28;1003;-42
2022/07/10 02:36:13;;;;;;;;;;;26.10;37.50;;;;;;5079206;28;873;-43
2022/07/10 02:38:43;;;;;;;;;;;26.10;37.60;;;;;;5080284;28;1035;-44
2022/07/10 02:41:09;;;;;;;;;;;26.10;37.50;;;;;;5079080;28;1009;-42
2022/07/10 02:43:36;;;;;;;;;;;26.10;37.60;;;;;;5079478;28;997;-44
2022/07/10 02:46:04;;;;;;;;;;;26.10;37.70;;;;;;5079185;28;957;-44
2022/07/10 02:48:31;;;;;;;;;;;26.10;37.60;;;;;;5079048;28;1026;-41
2022/07/10 02:50:57;;;;;;;;;;;26.10;37.50;;;;;;5079036;28;1980;-43
2022/07/10 02:53:24;;;;;;;;;;;26.10;37.50;;;;;;5079431;28;972;-43
2022/07/10 02:55:51;;;;;;;;;;;26.10;37.60;;;;;;5079356;28;1020;-44
2022/07/10 02:58:19;;;;;;;;;;;26.10;37.50;;;;;;5078658;28;1017;-42
2022/07/10 03:00:46;;;;;;;;;;;26.10;37.50;;;;;;5072552;28;1058;-44
2022/07/10 03:03:17;;;;;;;;;;;26.10;37.70;;;;;;5078217;28;1338;-41
2022/07/10 03:05:44;;;;;;;;;;;26.10;37.70;;;;;;5078917;28;1198;-43
2022/07/10 03:08:10;;;;;;;;;;;26.10;37.70;;;;;;5078205;28;873;-44
2022/07/10 03:10:37;;;;;;;;;;;26.10;37.70;;;;;;5078316;28;1890;-42
2022/07/10 03:13:04;;;;;;;;;;;26.10;37.60;;;;;;5078826;28;937;-41
2022/07/10 03:15:31;;;;;;;;;;;26.10;37.70;;;;;;5078569;28;1147;-43
2022/07/10 03:17:58;;;;;;;;;;;26.10;37.70;;;;;;5078825;28;1003;-42
2022/07/10 03:20:26;;;;;;;;;;;26.10;37.60;;;;;;5077892;28;1013;-44
2022/07/10 03:22:53;;;;;;;;;;;26.10;37.70;;;;;;5078659;28;936;-40
2022/07/10 03:25:20;;;;;;;;;;;26.10;37.60;;;;;;5078168;28;923;-39
2022/07/10 03:27:46;;;;;;;;;;;26.10;37.70;;;;;;5078646;28;944;-39
2022/07/10 03:30:13;;;;;;;;;;;26.10;37.60;;;;;;5078534;28;1984;-38
2022/07/10 03:32:40;;;;;;;;;;;26.10;37.70;;;;;;5078432;28;987;-39
2022/07/10 03:35:07;;;;;;;;;;;26.10;37.70;;;;;;5078367;28;933;-39
2022/07/10 03:37:35;;;;;;;;;;;26.10;37.70;;;;;;5078664;28;1063;-39
2022/07/10 03:40:02;;;;;;;;;;;26.10;37.60;;;;;;5078285;28;1035;-40
2022/07/10 03:42:29;;;;;;;;;;;26.10;37.60;;;;;;5076958;28;1021;-39
2022/07/10 03:44:55;;;;;;;;;;;26.10;37.50;;;;;;5078075;28;992;-39
2022/07/10 03:47:22;;;;;;;;;;;26.10;37.50;;;;;;5078574;28;979;-40
2022/07/10 03:49:49;;;;;;;;;;;26.10;37.50;;;;;;5077973;28;1902;-39
2022/07/10 03:52:16;;;;;;;;;;;26.10;37.50;;;;;;5078108;28;1152;-39
2022/07/10 03:54:44;;;;;;;;;;;26.10;37.60;;;;;;5078157;28;928;-39
2022/07/10 03:59:55;;;;;;;;;;;26.00;37.70;;;;;;5077901;28;675;-43
2022/07/10 04:02:22;;;;;;;;;;;26.00;37.70;;;;;;5077744;28;1209;-42
2022/07/10 04:04:49;;;;;;;;;;;26.00;37.60;;;;;;5078414;28;931;-44
2022/07/10 04:07:16;;;;;;;;;;;26.00;37.90;;;;;;5078231;28;923;-43
2022/07/10 04:09:44;;;;;;;;;;;26.00;37.70;;;;;;5078299;28;2005;-40
2022/07/10 04:12:11;;;;;;;;;;;26.10;37.60;;;;;;5077926;28;1024;-43
2022/07/10 04:14:38;;;;;;;;;;;26.10;37.70;;;;;;5077845;28;932;-44
2022/07/10 04:17:04;;;;;;;;;;;26.10;37.70;;;;;;5077038;28;1019;-44
2022/07/10 04:19:31;;;;;;;;;;;26.00;37.60;;;;;;5076953;28;984;-43
2022/07/10 04:21:58;;;;;;;;;;;26.10;37.70;;;;;;5077555;28;1008;-43
2022/07/10 04:24:25;;;;;;;;;;;26.00;37.70;;;;;;5077744;28;1005;-44
2022/07/10 04:26:53;;;;;;;;;;;26.00;38.10;;;;;;5077658;28;1006;-42
2022/07/10 04:29:20;;;;;;;;;;;26.10;37.70;;;;;;5077603;28;1909;-43
2022/07/10 04:31:46;;;;;;;;;;;26.00;37.70;;;;;;5077845;28;1004;-44
2022/07/10 04:34:13;;;;;;;;;;;26.00;37.70;;;;;;5078166;28;1004;-41
2022/07/10 04:36:40;;;;;;;;;;;26.10;37.70;;;;;;5077913;28;989;-44
2022/07/10 04:39:06;;;;;;;;;;;26.10;37.60;;;;;;5077829;28;1014;-44
2022/07/10 04:41:33;;;;;;;;;;;26.10;37.70;;;;;;5078173;28;915;-42
2022/07/10 04:44:01;;;;;;;;;;;26.00;37.70;;;;;;5076204;28;1043;-40
2022/07/10 04:46:28;;;;;;;;;;;26.10;37.60;;;;;;5077702;28;928;-39
2022/07/10 04:48:54;;;;;;;;;;;26.10;37.70;;;;;;5078002;28;1043;-40
2022/07/10 04:51:23;;;;;;;;;;;26.10;37.70;;;;;;5077665;28;1906;-43
2022/07/10 04:53:50;;;;;;;;;;;26.10;37.70;;;;;;5077794;28;1012;-43
2022/07/10 04:56:16;;;;;;;;;;;26.10;37.70;;;;;;5077479;28;964;-43
2022/07/10 04:58:43;;;;;;;;;;;26.00;37.70;;;;;;5077553;28;975;-42
2022/07/10 05:01:11;;;;;;;;;;;26.00;37.80;;;;;;5077599;28;955;-43
2022/07/10 05:03:38;;;;;;;;;;;26.00;37.90;;;;;;5076228;28;1024;-43
2022/07/10 05:06:05;;;;;;;;;;;25.90;38.00;;;;;;5077932;28;944;-40
2022/07/10 05:08:31;;;;;;;;;;;25.90;38.00;;;;;;5077065;28;1003;-41
2022/07/10 05:10:58;;;;;;;;;;;25.90;38.00;;;;;;5077201;28;1983;-40
2022/07/10 05:13:25;;;;;;;;;;;25.90;38.20;;;;;;5077833;28;1022;-42
2022/07/10 05:15:52;;;;;;;;;;;25.80;38.40;;;;;;5076941;28;1043;-40
2022/07/10 05:18:20;;;;;;;;;;;25.90;38.30;;;;;;5076798;28;984;-39
2022/07/10 05:20:49;;;;;;;;;;;25.90;38.20;;;;;;5076362;28;927;-39
2022/07/10 05:23:16;;;;;;;;;;;25.90;38.10;;;;;;5076288;28;985;-40
2022/07/10 05:25:43;;;;;;;;;;;25.90;38.30;;;;;;5075639;28;992;-41
2022/07/10 05:28:10;;;;;;;;;;;25.90;38.30;;;;;;5076342;28;1052;-41
2022/07/10 05:30:36;;;;;;;;;;;25.80;38.40;;;;;;5076645;28;1902;-39
2022/07/10 05:33:03;;;;;;;;;;;25.80;38.50;;;;;;5079701;28;951;-39
2022/07/10 05:35:31;;;;;;;;;;;25.70;38.70;;;;;;5079897;28;2773;-42
2022/07/10 05:37:58;;;;;;;;;;;25.70;38.70;;;;;;5079987;28;940;-41
2022/07/10 05:40:25;;;;;;;;;;;25.70;38.60;;;;;;5080261;28;971;-39
2022/07/10 05:42:52;;;;;;;;;;;25.70;38.70;;;;;;5078428;28;977;-39
2022/07/10 05:45:19;;;;;;;;;;;25.70;38.90;;;;;;5080347;28;1001;-39
2022/07/10 05:47:46;;;;;;;;;;;25.70;38.80;;;;;;5080450;28;948;-40
2022/07/10 05:50:12;;;;;;;;;;;25.70;38.70;;;;;;5080703;28;1905;-40
2022/07/10 05:52:40;;;;;;;;;;;25.70;38.70;;;;;;5081071;28;1006;-42
2022/07/10 05:55:07;;;;;;;;;;;25.70;38.70;;;;;;5079918;28;905;-39
2022/07/10 05:57:34;;;;;;;;;;;25.70;38.90;;;;;;5079716;28;1027;-41
2022/07/10 06:00:03;;;;;;;;;;;25.70;38.70;;;;;;5078427;28;913;-39
2022/07/10 06:02:30;;;;;;;;;;;25.70;38.60;;;;;;5079554;28;1087;-38
2022/07/10 06:04:56;;;;;;;;;;;25.70;38.50;;;;;;5079012;28;977;-41
2022/07/10 06:07:23;;;;;;;;;;;25.70;38.50;;;;;;5077993;28;1030;-39
2022/07/10 06:09:51;;;;;;;;;;;25.60;38.60;;;;;;5078217;28;1906;-40
2022/07/10 06:12:18;;;;;;;;;;;25.70;38.70;;;;;;5078231;28;935;-42
2022/07/10 06:14:45;;;;;;;;;;;25.60;38.50;;;;;;5078465;28;999;-39
2022/07/10 06:17:12;;;;;;;;;;;25.60;38.70;;;;;;5078926;28;981;-44
2022/07/10 06:19:39;;;;;;;;;;;25.60;38.80;;;;;;5078726;28;1050;-43
2022/07/10 06:24:51;;;;;;;;;;;25.50;38.80;;;;;;5078242;28;618;-43
2022/07/10 06:27:18;;;;;;;;;;;25.60;38.80;;;;;;5079006;28;994;-40
2022/07/10 06:29:45;;;;;;;;;;;25.60;38.80;;;;;;5078468;28;949;-42
2022/07/10 06:32:12;;;;;;;;;;;25.50;39.00;;;;;;5078394;28;1906;-42
2022/07/10 06:34:38;;;;;;;;;;;25.60;39.00;;;;;;5078424;28;1004;-39
2022/07/10 06:37:06;;;;;;;;;;;25.60;39.00;;;;;;5078179;28;1048;-41
2022/07/10 06:39:34;;;;;;;;;;;25.50;39.00;;;;;;5077898;28;1070;-42
2022/07/10 06:42:03;;;;;;;;;;;25.50;39.00;;;;;;5075948;28;1027;-41
2022/07/10 06:44:30;;;;;;;;;;;25.60;39.00;;;;;;5078765;28;985;-40
2022/07/10 06:49:41;;;;;;;;;;;25.50;39.00;;;;;;5078234;28;596;-39
2022/07/10 06:52:08;;;;;;;;;;;25.50;39.00;;;;;;5077708;28;1906;-42
2022/07/10 06:54:35;;;;;;;;;;;25.50;39.00;;;;;;5078124;28;1012;-42
2022/07/10 06:57:04;;;;;;;;;;;25.60;38.90;;;;;;5077516;28;1493;-39
2022/07/10 06:59:30;;;;;;;;;;;25.60;38.90;;;;;;5078312;28;897;-44
2022/07/10 07:01:57;;;;;;;;;;;25.60;38.90;;;;;;5077735;28;1417;-45
2022/07/10 07:04:24;;;;;;;;;;;25.50;39.00;;;;;;5078425;28;1023;-44
2022/07/10 07:06:50;;;;;;;;;;;25.60;39.00;;;;;;5077854;28;1022;-43
2022/07/10 07:09:17;;;;;;;;;;;25.60;39.00;;;;;;5077566;28;933;-40
2022/07/10 07:11:45;;;;;;;;;;;25.50;39.10;;;;;;5077653;28;1910;-39
2022/07/10 07:14:13;;;;;;;;;;;25.50;39.20;;;;;;5076412;28;1024;-39
2022/07/10 07:16:42;;;;;;;;;;;25.50;39.20;;;;;;5075181;28;1005;-41
2022/07/10 07:19:11;;;;;;;;;;;25.50;39.20;;;;;;5076778;28;981;-39
2022/07/10 07:24:22;;;;;;;;;;;25.50;39.20;;;;;;5076295;28;655;-42
2022/07/10 07:26:49;;;;;;;;;;;25.50;39.20;;;;;;5076337;28;998;-41
2022/07/10 07:29:18;;;;;;;;;;;25.50;39.20;;;;;;5076649;28;937;-39
2022/07/10 07:31:45;;;;;;;;;;;25.50;39.20;;;;;;5076162;28;1902;-39
2022/07/10 07:34:12;;;;;;;;;;;25.40;39.30;;;;;;5075974;28;927;-38
2022/07/10 07:36:38;;;;;;;;;;;25.40;39.30;;;;;;5076852;28;952;-40
2022/07/10 07:39:05;;;;;;;;;;;25.40;39.30;;;;;;5075582;28;1023;-41
2022/07/10 07:41:32;;;;;;;;;;;25.40;39.40;;;;;;5076194;28;968;-40
2022/07/10 07:43:58;;;;;;;;;;;25.40;39.40;;;;;;5075319;28;960;-39
2022/07/10 07:46:27;;;;;;;;;;;25.30;39.30;;;;;;5075537;28;998;-38
2022/07/10 07:48:53;;;;;;;;;;;25.40;39.40;;;;;;5075640;28;925;-38
2022/07/10 07:51:20;;;;;;;;;;;25.40;39.20;;;;;;5075838;28;1914;-38
2022/07/10 07:53:47;;;;;;;;;;;25.40;39.30;;;;;;5075926;28;960;-38
2022/07/10 07:56:14;;;;;;;;;;;25.40;39.10;;;;;;5075373;28;979;-39
2022/07/10 07:58:40;;;;;;;;;;;25.40;39.10;;;;;;5076191;28;948;-38
2022/07/10 08:01:07;;;;;;;;;;;25.40;38.90;;;;;;5075470;28;1029;-38
2022/07/10 08:03:35;;;;;;;;;;;25.40;38.90;;;;;;5075188;28;1170;-40
2022/07/10 08:06:02;;;;;;;;;;;25.40;39.00;;;;;;5074992;28;996;-38
2022/07/10 08:08:30;;;;;;;;;;;25.40;39.00;;;;;;5075736;28;906;-39
2022/07/10 08:10:56;;;;;;;;;;;25.40;39.10;;;;;;5075035;28;1902;-39
2022/07/10 08:13:23;;;;;;;;;;;25.30;39.10;;;;;;5075297;28;940;-39
2022/07/10 08:15:50;;;;;;;;;;;25.30;39.10;;;;;;5075671;28;972;-38
2022/07/10 08:18:17;;;;;;;;;;;25.30;39.20;;;;;;5074058;28;937;-38
2022/07/10 08:20:45;;;;;;;;;;;25.30;39.10;;;;;;5076303;28;973;-39
2022/07/10 08:23:12;;;;;;;;;;;25.30;39.00;;;;;;5075373;28;1015;-38
2022/07/10 08:25:39;;;;;;;;;;;25.30;38.80;;;;;;5075128;28;963;-40
2022/07/10 08:28:06;;;;;;;;;;;25.30;38.90;;;;;;5075721;28;1015;-39
2022/07/10 08:30:33;;;;;;;;;;;25.30;38.90;;;;;;5075486;28;1978;-41
2022/07/10 08:33:00;;;;;;;;;;;25.30;38.90;;;;;;5075974;28;984;-39
2022/07/10 08:35:26;;;;;;;;;;;25.30;39.00;;;;;;5075834;28;987;-39
2022/07/10 08:37:55;;;;;;;;;;;25.30;39.00;;;;;;5076718;28;947;-38
2022/07/10 08:40:22;;;;;;;;;;;25.30;39.10;;;;;;5076335;28;980;-39
2022/07/10 08:42:49;;;;;;;;;;;25.30;39.10;;;;;;5074204;28;1210;-41
2022/07/10 08:45:16;;;;;;;;;;;25.30;39.10;;;;;;5074343;28;949;-40
2022/07/10 08:47:44;;;;;;;;;;;25.30;39.10;;;;;;5074151;28;931;-38
2022/07/10 08:50:16;;;;;;;;;;;25.30;39.10;;;;;;5073458;28;1007;-39
2022/07/10 08:52:44;;;;;;;;;;;25.30;39.20;;;;;;5074067;28;1996;-39
2022/07/10 08:55:14;;;;;;;;;;;25.30;39.10;;;;;;5073935;28;932;-38
2022/07/10 08:57:41;;;;;;;;;;;25.30;39.30;;;;;;5073598;28;937;-38
2022/07/10 09:00:09;;;;;;;;;;;25.30;39.30;;;;;;5074195;28;1040;-39
2022/07/10 09:02:35;;;;;;;;;;;25.20;39.30;;;;;;5074836;28;1076;-40
2022/07/10 09:05:04;;;;;;;;;;;25.20;39.50;;;;;;5074626;28;896;-38
2022/07/10 09:07:35;;;;;;;;;;;25.20;39.60;;;;;;5076933;28;1136;-38
2022/07/10 09:10:07;;;;;;;;;;;25.30;39.30;;;;;;5077978;28;1054;-38
2022/07/10 09:12:52;;;;;;;;;;;25.20;39.40;;;;;;5077753;28;1922;-38
2022/07/10 09:15:20;;;;;;;;;;;25.30;39.40;;;;;;5078817;28;951;-39
2022/07/10 09:17:53;;;;;;;;;;;25.30;39.60;;;;;;5078733;28;976;-39
2022/07/10 09:20:30;;;;;;;;;;;25.30;39.70;;;;;;5078134;28;986;-38
2022/07/10 09:22:58;;;;;;;;;;;25.30;39.80;;;;;;5078737;28;976;-40
2022/07/10 09:25:30;;;;;;;;;;;25.30;39.90;;;;;;5078048;28;1812;-39
2022/07/10 09:27:59;;;;;;;;;;;25.30;40.00;;;;;;5078322;28;1004;-39
2022/07/10 09:30:33;;;;;;;;;;;25.20;40.20;;;;;;5092563;28;1306;-40
2022/07/10 09:33:14;;;;;;;;;;;25.20;40.40;;;;;;5098499;28;1914;-40
2022/07/10 09:36:06;;;;;;;;;;;25.20;40.40;;;;;;5098297;28;1029;-42
2022/07/10 09:38:49;;;;;;;;;;;25.20;40.40;;;;;;5098980;28;986;-43
2022/07/10 09:41:17;;;;;;;;;;;25.20;40.70;;;;;;5098160;28;980;-41
2022/07/10 09:43:46;;;;;;;;;;;25.20;40.70;;;;;;5097949;28;1015;-40
2022/07/10 09:46:12;;;;;;;;;;;25.10;41.00;;;;;;5098761;28;958;-37
2022/07/10 09:48:39;;;;;;;;;;;25.10;41.10;;;;;;5098693;28;944;-38
2022/07/10 09:51:08;;;;;;;;;;;25.10;41.30;;;;;;5097492;28;1914;-38
2022/07/10 09:53:38;;;;;;;;;;;25.10;41.40;;;;;;5095635;28;1012;-38
2022/07/10 09:56:07;;;;;;;;;;;25.10;41.50;;;;;;5098137;28;1020;-38
2022/07/10 09:58:35;;;;;;;;;;;25.00;41.60;;;;;;5098204;28;1004;-37
2022/07/10 10:01:04;;;;;;;;;;;25.10;41.80;;;;;;5098294;28;1010;-37
2022/07/10 10:03:33;;;;;;;;;;;25.10;41.90;;;;;;5097982;28;1186;-38
2022/07/10 10:06:03;;;;;;;;;;;25.10;42.40;;;;;;5098373;28;1025;-38
2022/07/10 10:08:30;;;;;;;;;;;25.00;42.30;;;;;;5097612;28;948;-37
2022/07/10 10:10:57;;;;;;;;;;;25.00;42.20;;;;;;5097851;28;964;-38
2022/07/10 10:13:27;;;;;;;;;;;25.10;42.00;;;;;;5097998;28;1981;-38
2022/07/10 10:15:54;;;;;;;;;;;25.00;42.20;;;;;;5098669;28;1000;-38
2022/07/10 10:18:23;;;;;;;;;;;25.00;42.20;;;;;;5097345;28;941;-38
2022/07/10 10:20:50;;;;;;;;;;;25.00;41.90;;;;;;5098440;28;1015;-38
2022/07/10 10:23:20;;;;;;;;;;;25.10;41.80;;;;;;5098959;28;1015;-38
2022/07/10 10:25:47;;;;;;;;;;;25.20;41.60;;;;;;5098559;28;1000;-38
2022/07/10 10:28:14;;;;;;;;;;;25.20;41.60;;;;;;5098737;28;945;-38
2022/07/10 10:30:42;;;;;;;;;;;25.30;41.20;;;;;;5098640;28;998;-38
2022/07/10 10:33:33;;;;;;;;;;;25.40;41.60;;;;;;5099431;28;1901;-38
2022/07/10 10:36:02;;;;;;;;;;;25.40;42.10;;;;;;5084334;28;1199;-38
2022/07/10 10:38:51;;;;;;;;;;;25.40;41.60;;;;;;5099384;28;1015;-38
2022/07/10 10:41:24;;;;;;;;;;;25.40;41.60;;;;;;5096067;28;982;-39
2022/07/10 10:44:20;;;;;;;;;;;25.50;41.60;;;;;;5096299;28;1001;-39
2022/07/10 10:46:56;;;;;;;;;;;25.50;41.60;;;;;;5095418;28;986;-38
2022/07/10 10:49:24;;;;;;;;;;;25.60;41.80;;;;;;5096076;28;1027;-36
2022/07/10 10:51:59;;;;;;;;;;;25.60;41.70;;;;;;5095981;28;1983;-36
2022/07/10 10:54:26;;;;;;;;;;;25.60;41.40;;;;;;5096187;28;1008;-37
2022/07/10 10:57:12;;;;;;;;;;;25.70;41.40;;;;;;5095094;28;991;-37
2022/07/10 10:59:45;;;;;;;;;;;25.70;41.20;;;;;;5094890;28;996;-36
2022/07/10 11:02:21;;;;;;;;;;;25.80;41.40;;;;;;5098061;28;1250;-36
2022/07/10 11:04:49;;;;;;;;;;;25.90;41.00;;;;;;5098205;28;1080;-37
2022/07/10 11:07:31;;;;;;;;;;;25.90;41.20;;;;;;5097827;28;976;-37
2022/07/10 11:10:13;;;;;;;;;;;25.90;41.30;;;;;;5076471;28;936;-37
2022/07/10 11:12:54;;;;;;;;;;;26.00;41.30;;;;;;5077252;28;1979;-36
2022/07/10 11:15:23;;;;;;;;;;;26.00;41.00;;;;;;5076527;28;1019;-36
2022/07/10 11:17:50;;;;;;;;;;;26.00;41.30;;;;;;5075719;28;941;-36
2022/07/10 11:20:17;;;;;;;;;;;26.00;41.40;;;;;;5077426;28;945;-36
2022/07/10 11:22:53;;;;;;;;;;;26.00;41.10;;;;;;5076529;28;1007;-37
2022/07/10 11:25:28;;;;;;;;;;;26.10;41.20;;;;;;5077222;28;960;-37
2022/07/10 11:28:07;;;;;;;;;;;26.00;41.10;;;;;;5077753;28;968;-37
2022/07/10 11:30:45;;;;;;;;;;;25.90;41.30;;;;;;5077537;28;1028;-36
2022/07/10 11:33:12;;;;;;;;;;;26.00;41.20;;;;;;5077585;28;1902;-39
2022/07/10 11:35:39;;;;;;;;;;;26.10;41.50;;;;;;5075725;28;941;-39
2022/07/10 11:38:05;;;;;;;;;;;26.10;41.70;;;;;;5076571;28;1023;-36
2022/07/10 11:40:36;;;;;;;;;;;26.10;42.20;;;;;;5076535;28;997;-36
2022/07/10 11:43:05;;;;;;;;;;;26.10;42.30;;;;;;5076051;28;945;-36
2022/07/10 11:45:33;;;;;;;;;;;26.00;42.40;;;;;;5075758;28;922;-36
2022/07/10 11:48:01;;;;;;;;;;;26.00;42.30;;;;;;5074615;28;980;-36
2022/07/10 11:50:28;;;;;;;;;;;26.10;41.90;;;;;;5075532;28;889;-36
2022/07/10 11:52:55;;;;;;;;;;;26.10;41.80;;;;;;5074426;28;1902;-36
2022/07/10 11:55:23;;;;;;;;;;;26.10;42.10;;;;;;5075070;28;1008;-36
2022/07/10 11:57:50;;;;;;;;;;;26.10;41.90;;;;;;5074826;28;845;-36
2022/07/10 12:00:24;;;;;;;;;;;26.10;41.70;;;;;;5074151;28;1041;-36
2022/07/10 12:02:50;;;;;;;;;;;26.10;41.90;;;;;;5073346;28;1180;-36
2022/07/10 12:05:32;;;;;;;;;;;26.00;41.80;;;;;;5075013;28;992;-36
2022/07/10 12:08:02;;;;;;;;;;;26.10;42.00;;;;;;5074346;28;1217;-36
2022/07/10 12:10:29;;;;;;;;;;;26.20;42.00;;;;;;5076913;28;1115;-36
2022/07/10 12:13:03;;;;;;;;;;;26.10;41.70;;;;;;5076487;28;1909;-37
2022/07/10 12:15:33;;;;;;;;;;;26.20;41.90;;;;;;5074178;28;956;-37
2022/07/10 12:18:00;;;;;;;;;;;26.10;41.70;;;;;;5077154;28;941;-37
2022/07/10 12:20:27;;;;;;;;;;;26.10;43.10;;;;;;5075778;28;989;-37
2022/07/10 12:22:55;;;;;;;;;;;26.10;42.10;;;;;;5076709;28;1004;-37
2022/07/10 12:25:23;;;;;;;;;;;26.00;42.30;;;;;;5076228;28;950;-37
2022/07/10 12:27:55;;;;;;;;;;;26.10;41.90;;;;;;5075938;28;992;-37
2022/07/10 12:30:22;;;;;;;;;;;26.20;41.90;;;;;;5074856;28;976;-37
2022/07/10 12:32:49;;;;;;;;;;;26.20;41.60;;;;;;5076519;28;1975;-38
2022/07/10 12:35:16;;;;;;;;;;;26.10;41.60;;;;;;5075981;28;1021;-37
2022/07/10 12:37:49;;;;;;;;;;;26.10;41.50;;;;;;5076386;28;884;-37
2022/07/10 12:40:32;;;;;;;;;;;26.10;41.80;;;;;;5074993;28;990;-37
2022/07/10 12:43:03;;;;;;;;;;;26.20;42.10;;;;;;5076702;28;925;-38
2022/07/10 12:45:30;;;;;;;;;;;26.30;41.90;;;;;;5076399;28;909;-38
2022/07/10 12:47:57;;;;;;;;;;;26.30;41.50;;;;;;5076355;28;949;-37
2022/07/10 12:50:25;;;;;;;;;;;26.30;41.60;;;;;;5075876;28;964;-38
2022/07/10 12:53:06;;;;;;;;;;;26.40;42.10;;;;;;5076282;28;1905;-38
2022/07/10 12:55:37;;;;;;;;;;;26.50;42.30;;;;;;5076727;28;1013;-37
2022/07/10 12:58:08;;;;;;;;;;;26.50;42.30;;;;;;5075871;28;853;-37
2022/07/10 13:00:36;;;;;;;;;;;26.40;42.50;;;;;;5075456;28;864;-37
2022/07/10 13:03:04;;;;;;;;;;;26.50;42.80;;;;;;5075605;28;1099;-38
2022/07/10 13:05:32;;;;;;;;;;;26.40;42.20;;;;;;5075405;28;1020;-37
2022/07/10 13:08:10;;;;;;;;;;;26.40;42.40;;;;;;5075444;28;921;-37
2022/07/10 13:10:39;;;;;;;;;;;26.50;43.20;;;;;;5075919;28;992;-37
2022/07/10 13:13:06;;;;;;;;;;;26.60;42.50;;;;;;5069619;28;1910;-38
2022/07/10 13:15:34;;;;;;;;;;;26.60;42.70;;;;;;5072383;28;1009;-38
2022/07/10 13:18:01;;;;;;;;;;;26.50;42.70;;;;;;5072323;28;892;-38
2022/07/10 13:20:27;;;;;;;;;;;26.60;42.10;;;;;;5073298;28;1011;-38
2022/07/10 13:22:54;;;;;;;;;;;26.60;42.40;;;;;;5074692;28;980;-37
2022/07/10 13:25:21;;;;;;;;;;;26.60;42.40;;;;;;5074682;28;1002;-33
2022/07/10 13:27:51;;;;;;;;;;;26.50;42.50;;;;;;5075085;28;1016;-32
2022/07/10 13:30:18;;;;;;;;;;;26.60;42.20;;;;;;5074899;28;986;-35
2022/07/10 13:32:44;;;;;;;;;;;26.50;42.30;;;;;;5074793;28;1983;-35
2022/07/10 13:35:11;;;;;;;;;;;26.50;42.10;;;;;;5070766;28;1007;-32
2022/07/10 13:37:38;;;;;;;;;;;26.50;42.40;;;;;;5073393;28;1124;-32
2022/07/10 13:40:05;;;;;;;;;;;26.40;42.50;;;;;;5073276;28;992;-32
2022/07/10 13:42:32;;;;;;;;;;;26.50;43.00;;;;;;5075418;28;889;-32
2022/07/10 13:45:01;;;;;;;;;;;26.50;44.30;;;;;;5068771;28;961;-32
2022/07/10 13:47:27;;;;;;;;;;;26.50;43.70;;;;;;5075623;28;1136;-32
2022/07/10 13:49:54;;;;;;;;;;;26.50;43.70;;;;;;5073745;28;928;-32
2022/07/10 13:52:21;;;;;;;;;;;26.50;43.50;;;;;;5074633;28;1957;-32
2022/07/10 13:54:48;;;;;;;;;;;26.50;43.40;;;;;;5076610;28;1042;-32
2022/07/10 13:57:15;;;;;;;;;;;26.50;42.80;;;;;;5076748;28;986;-32
2022/07/10 13:59:42;;;;;;;;;;;26.40;42.20;;;;;;5076881;28;1028;-32
2022/07/10 14:02:10;;;;;;;;;;;26.40;42.00;;;;;;5077537;28;1075;-32
2022/07/10 14:04:37;;;;;;;;;;;26.40;41.90;;;;;;5075994;28;999;-40
2022/07/10 14:07:04;;;;;;;;;;;26.40;41.80;;;;;;5077229;28;989;-40
2022/07/10 14:09:31;;;;;;;;;;;26.30;42.00;;;;;;5076765;28;953;-40
2022/07/10 14:11:58;;;;;;;;;;;26.30;42.00;;;;;;5076919;28;949;-39
2022/07/10 14:14:24;;;;;;;;;;;26.30;42.00;;;;;;5076016;28;1906;-40
2022/07/10 14:16:51;;;;;;;;;;;26.30;41.90;;;;;;5076439;28;1512;-38
2022/07/10 14:19:20;;;;;;;;;;;26.30;41.60;;;;;;5075331;28;1579;-38
2022/07/10 14:21:47;;;;;;;;;;;26.30;42.60;;;;;;5075361;28;1030;-40
2022/07/10 14:24:14;;;;;;;;;;;26.30;41.50;;;;;;5076701;28;1212;-38
2022/07/10 14:26:41;;;;;;;;;;;26.30;41.60;;;;;;5076145;28;969;-47
2022/07/10 14:29:08;;;;;;;;;;;26.20;41.80;;;;;;5075807;28;1000;-47
2022/07/10 14:31:35;;;;;;;;;;;26.20;41.80;;;;;;5075534;28;1051;-48
2022/07/10 14:34:04;;;;;;;;;;;26.30;41.50;;;;;;5075845;28;1894;-47
2022/07/10 14:36:32;;;;;;;;;;;26.30;41.40;;;;;;5076441;28;893;-43
2022/07/10 14:38:59;;;;;;;;;;;26.20;41.30;;;;;;5076117;28;921;-42
2022/07/10 14:41:26;;;;;;;;;;;26.20;41.40;;;;;;5075841;28;1852;-39
2022/07/10 14:43:53;;;;;;;;;;;26.20;41.60;;;;;;5074696;28;1003;-39
2022/07/10 14:46:20;;;;;;;;;;;26.20;41.70;;;;;;5072641;28;1043;-44
2022/07/10 14:48:47;;;;;;;;;;;26.20;41.80;;;;;;5076098;28;1004;-44
2022/07/10 14:51:14;;;;;;;;;;;26.20;41.80;;;;;;5070358;28;999;-42
2022/07/10 14:53:45;;;;;;;;;;;26.20;41.90;;;;;;5075695;28;1894;-43
2022/07/10 14:56:12;;;;;;;;;;;26.10;41.90;;;;;;5073887;28;1034;-43